createdAt,value
2022-10-22T00:03:48.482Z,99867.53
2022-10-22T00:08:52.579Z,99869.69
2022-10-22T00:13:55.345Z,99872.78
2022-10-22T00:18:58.057Z,99877.31
2022-10-22T00:24:02.054Z,99869.69
2022-10-22T00:29:04.719Z,99865.84
2022-10-22T00:34:07.380Z,99873.22
2022-10-22T00:39:12.950Z,99875.75
2022-10-22T00:44:53.206Z,99894.00
2022-10-22T00:49:55.880Z,99911.28
2022-10-22T00:54:59.868Z,99890.91
2022-10-22T01:00:03.396Z,99902.66
2022-10-22T01:05:06.822Z,99900.34
2022-10-22T01:10:15.387Z,99893.72
2022-10-22T01:15:23.029Z,99885.31
2022-10-22T01:21:02.058Z,99895.78
2022-10-22T01:26:07.531Z,99887.84
2022-10-22T01:31:11.562Z,99873.56
2022-10-22T01:36:14.261Z,99883.75
2022-10-22T01:41:16.876Z,99882.91
2022-10-22T01:46:23.250Z,99886.69
2022-10-22T01:51:31.580Z,99886.84
2022-10-22T01:56:42.707Z,99879.06
2022-10-22T02:01:49.952Z,99872.38
2022-10-22T02:06:52.939Z,99873.22
2022-10-22T02:11:55.699Z,99873.38
2022-10-22T02:16:59.789Z,99871.69
2022-10-22T02:22:02.455Z,99874.50
2022-10-22T02:27:08.373Z,99872.09
2022-10-22T02:32:13.180Z,99853.41
2022-10-22T02:37:16.069Z,99846.63
2022-10-22T02:42:18.768Z,99857.50
2022-10-22T02:52:25.361Z,99853.53
2022-10-22T02:57:28.232Z,99842.34
2022-10-22T03:02:32.202Z,99855.03
2022-10-22T03:07:34.974Z,99857.03
2022-10-22T03:12:37.685Z,99854.34
2022-10-22T03:17:42.077Z,99869.03
2022-10-22T03:22:44.935Z,99869.19
2022-10-22T03:27:47.566Z,99880.31
2022-10-22T03:32:51.567Z,99879.59
2022-10-22T03:37:54.228Z,99896.00
2022-10-22T03:42:56.928Z,99893.56
2022-10-22T03:48:00.935Z,99878.72
2022-10-22T03:53:03.628Z,99887.16
2022-10-22T03:58:06.404Z,99908.78
2022-10-22T04:03:10.365Z,99896.34
2022-10-22T04:08:13.191Z,99901.84
2022-10-22T04:13:15.881Z,99900.38
2022-10-22T04:18:20.300Z,99903.94
2022-10-22T04:23:23.601Z,99897.09
2022-10-22T04:28:26.251Z,99902.59
2022-10-22T04:33:30.304Z,99905.28
2022-10-22T04:38:33.071Z,99907.28
2022-10-22T04:43:35.733Z,99920.69
2022-10-22T04:48:40.293Z,99928.13
2022-10-22T04:53:43.000Z,99928.28
2022-10-22T04:58:45.863Z,99914.13
2022-10-22T05:03:50.251Z,99911.44
2022-10-22T05:08:56.937Z,99903.53
2022-10-22T05:14:00.020Z,99899.28
2022-10-22T05:19:04.034Z,99912.09
2022-10-22T05:24:07.640Z,99931.31
2022-10-22T05:29:10.310Z,99933.84
2022-10-22T05:34:14.283Z,99944.72
2022-10-22T05:39:16.974Z,99938.66
2022-10-22T05:44:19.645Z,99946.22
2022-10-22T05:49:23.775Z,99942.81
2022-10-22T05:54:26.458Z,99933.91
2022-10-22T05:59:29.250Z,99936.72
2022-10-22T06:04:33.206Z,99952.94
2022-10-22T06:14:40.236Z,99976.25
2022-10-22T06:19:44.397Z,99988.94
2022-10-22T06:24:47.031Z,100007.00
2022-10-22T06:29:49.747Z,100006.28
2022-10-22T06:34:53.830Z,100027.63
2022-10-22T06:39:56.500Z,100026.91
2022-10-22T06:44:59.167Z,100035.81
2022-10-22T06:50:03.358Z,100041.31
2022-10-22T06:55:06.711Z,100043.13
2022-10-22T07:00:10.675Z,100051.16
2022-10-22T07:05:15.198Z,100048.47
2022-10-22T07:10:18.096Z,100057.03
2022-10-22T07:15:20.767Z,100067.63
2022-10-22T07:20:24.845Z,100074.69
2022-10-22T07:25:27.559Z,100082.63
2022-10-22T07:30:30.442Z,100086.91
2022-10-22T07:35:34.695Z,100091.53
2022-10-22T07:40:37.433Z,100110.19
2022-10-22T07:45:41.746Z,100113.97
2022-10-22T07:50:45.826Z,100123.00
2022-10-22T07:55:49.653Z,100122.59
2022-10-22T08:00:52.407Z,100124.09
2022-10-22T08:05:56.488Z,100122.28
2022-10-22T08:10:59.924Z,100134.00
2022-10-22T08:16:02.784Z,100132.41
2022-10-22T08:21:07.455Z,100133.75
2022-10-22T08:26:10.387Z,100136.06
2022-10-22T08:31:13.031Z,100137.66
2022-10-22T08:36:17.070Z,100147.41
2022-10-22T08:41:20.530Z,100147.06
2022-10-22T08:46:29.831Z,100143.41
2022-10-22T08:51:35.260Z,100153.03
2022-10-22T08:56:37.889Z,100153.03
2022-10-22T09:01:41.211Z,100159.13
2022-10-22T09:06:45.770Z,100168.53
2022-10-22T09:11:50.987Z,100168.16
2022-10-22T09:17:04.813Z,100167.94
2022-10-22T09:22:14.780Z,100171.34
2022-10-22T09:27:18.642Z,100171.09
2022-10-22T09:32:21.474Z,100178.06
2022-10-22T09:37:27.110Z,100182.19
2022-10-22T09:42:29.747Z,100186.56
2022-10-22T09:47:43.648Z,100182.91
2022-10-22T09:52:59.720Z,100184.63
2022-10-22T09:58:02.439Z,100168.28
2022-10-22T10:03:05.177Z,100187.81
2022-10-22T10:08:13.788Z,100188.53
2022-10-22T10:13:25.964Z,100197.31
2022-10-22T10:18:35.261Z,100194.63
2022-10-22T10:23:42.750Z,100188.91
2022-10-22T10:29:00.428Z,100192.03
2022-10-22T10:34:07.293Z,100191.19
2022-10-22T10:39:12.405Z,100187.53
2022-10-22T10:44:38.578Z,100185.34
2022-10-22T10:49:41.291Z,100188.88
2022-10-22T10:54:47.870Z,100199.22
2022-10-22T10:59:57.972Z,100189.34
2022-10-22T11:05:08.744Z,100194.59
2022-10-22T11:10:27.135Z,100188.22
2022-10-22T11:15:32.179Z,100191.03
2022-10-22T11:20:42.063Z,100208.09
2022-10-22T11:25:47.018Z,100214.72
2022-10-22T11:30:50.761Z,100206.31
2022-10-22T11:35:53.433Z,100202.63
2022-10-22T11:40:58.289Z,100203.72
2022-10-22T11:46:10.655Z,100202.25
2022-10-22T11:51:33.040Z,100206.22
2022-10-22T11:56:39.451Z,100210.38
2022-10-22T12:01:42.789Z,100204.47
2022-10-22T12:06:57.042Z,100200.44
2022-10-22T12:12:06.220Z,100200.03
2022-10-22T12:17:10.728Z,100204.44
2022-10-22T12:22:15.748Z,100212.13
2022-10-22T12:27:22.679Z,100206.97
2022-10-22T12:32:33.881Z,100208.16
2022-10-22T12:37:37.115Z,100204.34
2022-10-22T12:42:41.159Z,100208.75
2022-10-22T12:47:47.025Z,100209.59
2022-10-22T12:52:49.889Z,100197.41
2022-10-22T12:57:53.987Z,100205.91
2022-10-22T13:02:57.937Z,100198.44
2022-10-22T13:08:03.947Z,100190.78
2022-10-22T13:13:08.248Z,100200.88
2022-10-22T13:18:18.908Z,100202.16
2022-10-22T13:23:22.488Z,100195.59
2022-10-22T13:28:26.932Z,100196.75
2022-10-22T13:33:31.085Z,100196.50
2022-10-22T13:38:33.979Z,100206.63
2022-10-22T13:43:37.987Z,100201.31
2022-10-22T13:48:40.707Z,100206.34
2022-10-22T13:53:43.365Z,100200.97
2022-10-22T13:58:47.751Z,100203.56
2022-10-22T14:03:50.836Z,100206.13
2022-10-22T14:08:56.373Z,100212.75
2022-10-22T14:14:00.416Z,100213.00
2022-10-22T14:19:03.503Z,100215.44
2022-10-22T14:24:08.443Z,100217.00
2022-10-22T14:29:15.010Z,100212.09
2022-10-22T14:34:17.711Z,100225.31
2022-10-22T14:39:21.532Z,100224.06
2022-10-22T14:44:25.611Z,100230.03
2022-10-22T14:49:28.643Z,100228.78
2022-10-22T14:54:31.359Z,100233.31
2022-10-22T14:59:35.669Z,100243.66
2022-10-22T15:04:38.416Z,100250.88
2022-10-22T15:09:41.856Z,100256.03
2022-10-22T15:14:45.861Z,100252.50
2022-10-22T15:19:48.619Z,100263.69
2022-10-22T15:24:53.507Z,100272.09
2022-10-22T15:29:58.898Z,100276.34
2022-10-22T15:35:02.182Z,100276.81
2022-10-22T15:40:07.265Z,100291.25
2022-10-22T15:45:11.885Z,100297.50
2022-10-22T15:50:14.698Z,100295.19
2022-10-22T15:55:17.543Z,100298.00
2022-10-22T16:00:22.037Z,100303.53
2022-10-22T16:05:24.904Z,100315.88
2022-10-22T16:10:28.072Z,100315.00
2022-10-22T16:15:32.239Z,100319.53
2022-10-22T16:20:39.190Z,100323.53
2022-10-22T16:25:41.952Z,100316.91
2022-10-22T16:30:46.249Z,100327.81
2022-10-22T16:35:49.473Z,100321.09
2022-10-22T16:40:52.139Z,100315.66
2022-10-22T16:45:56.325Z,100337.25
2022-10-22T16:50:59.319Z,100338.72
2022-10-22T16:56:02.020Z,100343.69
2022-10-22T17:01:08.681Z,100360.56
2022-10-22T17:06:11.875Z,100366.34
2022-10-22T17:11:17.121Z,100371.31
2022-10-22T17:16:22.007Z,100373.91
2022-10-22T17:21:24.799Z,100372.19
2022-10-22T17:26:27.655Z,100389.91
2022-10-22T17:31:32.841Z,100399.69
2022-10-22T17:36:36.193Z,100406.94
2022-10-22T17:41:39.039Z,100414.00
2022-10-22T17:46:43.775Z,100407.66
2022-10-22T17:51:46.678Z,100409.63
2022-10-22T17:56:49.379Z,100413.03
2022-10-22T18:01:56.897Z,100416.72
2022-10-22T18:07:02.293Z,100415.00
2022-10-22T18:12:05.281Z,100415.72
2022-10-22T18:17:09.394Z,100416.44
2022-10-22T18:22:12.199Z,100417.56
2022-10-22T18:27:14.935Z,100419.88
2022-10-22T18:32:18.899Z,100415.59
2022-10-22T18:37:21.604Z,100416.00
2022-10-22T18:42:26.390Z,100435.41
2022-10-22T18:47:33.107Z,100437.25
2022-10-22T18:52:35.831Z,100430.88
2022-10-22T18:57:38.954Z,100440.94
2022-10-22T19:02:43.609Z,100435.28
2022-10-22T19:07:46.649Z,100439.09
2022-10-22T19:12:49.391Z,100439.94
2022-10-22T19:17:53.669Z,100445.19
2022-10-22T19:22:57.327Z,100446.19
2022-10-22T19:27:59.974Z,100448.88
2022-10-22T19:33:04.062Z,100453.94
2022-10-22T19:38:06.731Z,100460.50
2022-10-22T19:43:09.383Z,100464.91
2022-10-22T19:48:13.417Z,100463.84
2022-10-22T19:53:16.201Z,100471.66
2022-10-22T19:58:18.865Z,100489.00
2022-10-22T20:03:23.128Z,100491.50
2022-10-22T20:08:25.803Z,100503.09
2022-10-22T20:13:28.960Z,100497.84
2022-10-22T20:18:34.012Z,100499.56
2022-10-22T20:23:36.962Z,100505.94
2022-10-22T20:28:39.706Z,100509.81
2022-10-22T20:33:43.713Z,100517.19
2022-10-22T20:38:48.012Z,100514.75
2022-10-22T20:43:51.627Z,100521.00
2022-10-22T20:48:57.818Z,100516.19
2022-10-22T20:54:00.704Z,100527.94
2022-10-22T20:59:07.974Z,100526.97
2022-10-22T21:04:11.975Z,100528.94
2022-10-22T21:09:15.245Z,100540.69
2022-10-22T21:14:22.127Z,100532.97
2022-10-22T21:19:26.262Z,100531.66
2022-10-22T21:24:28.915Z,100532.38
2022-10-22T21:29:31.608Z,100536.34
2022-10-22T21:34:38.871Z,100535.13
2022-10-22T21:39:42.270Z,100524.34
2022-10-22T21:44:45.057Z,100526.31
2022-10-22T21:49:49.137Z,100516.50
2022-10-22T21:54:51.814Z,100520.31
2022-10-22T21:59:54.429Z,100520.59
2022-10-22T22:04:58.398Z,100514.34
2022-10-22T22:10:01.037Z,100515.19
2022-10-22T22:15:03.768Z,100534.16
2022-10-22T22:20:09.997Z,100534.41
2022-10-22T22:25:12.685Z,100545.56
2022-10-22T22:30:15.457Z,100543.00
2022-10-22T22:35:19.553Z,100534.91
2022-10-22T22:40:22.218Z,100539.56
2022-10-22T22:45:24.913Z,100539.81
2022-10-22T22:50:28.922Z,100549.72
2022-10-22T22:55:31.923Z,100547.03
2022-10-22T23:00:34.941Z,100556.22
2022-10-22T23:05:39.153Z,100553.38
2022-10-22T23:10:41.821Z,100545.44
2022-10-22T23:15:44.449Z,100554.50
2022-10-22T23:20:48.536Z,100551.56
2022-10-22T23:25:51.258Z,100542.75
2022-10-22T23:30:53.893Z,100540.31
2022-10-22T23:35:57.930Z,100533.22
2022-10-22T23:41:00.676Z,100535.91
2022-10-22T23:46:03.368Z,100535.91
2022-10-22T23:51:08.004Z,100530.66
2022-10-22T23:56:11.736Z,100525.25
